createdAt,value
2018-08-31T00:01:45.075Z,6.07
2018-08-31T00:04:36.182Z,6.00
2018-08-31T00:07:15.459Z,5.77
2018-08-31T00:12:09.584Z,6.00
2018-08-31T00:14:38.106Z,6.07
2018-08-31T00:17:06.635Z,6.23
2018-08-31T00:19:35.056Z,6.20
2018-08-31T00:22:03.344Z,5.47
2018-08-31T00:24:42.628Z,6.20
2018-08-31T00:27:21.943Z,5.63
2018-08-31T00:30:01.431Z,5.70
2018-08-31T00:33:09.214Z,6.23
2018-08-31T00:35:47.603Z,5.80
2018-08-31T00:38:59.075Z,5.60
2018-08-31T00:41:38.476Z,6.07
2018-08-31T00:46:24.420Z,5.70
2018-08-31T00:48:52.787Z,6.10
2018-08-31T00:51:21.091Z,6.20
2018-08-31T00:53:49.509Z,6.37
2018-08-31T00:56:17.779Z,5.90
2018-08-31T00:58:46.212Z,5.40
2018-08-31T01:01:14.546Z,5.77
2018-08-31T01:03:42.876Z,6.17
2018-08-31T01:06:11.147Z,6.27
2018-08-31T01:08:39.627Z,5.27
2018-08-31T01:11:08.143Z,5.97
2018-08-31T01:13:37.342Z,6.07
2018-08-31T01:16:06.084Z,6.00
2018-08-31T01:18:34.503Z,6.10
2018-08-31T01:21:03.020Z,5.60
2018-08-31T01:23:31.612Z,6.13
2018-08-31T01:25:59.995Z,6.07
2018-08-31T01:28:28.436Z,5.57
2018-08-31T01:30:56.898Z,5.77
2018-08-31T01:33:25.372Z,5.90
2018-08-31T01:35:53.786Z,5.50
2018-08-31T01:38:22.147Z,6.37
2018-08-31T01:40:50.646Z,5.93
2018-08-31T01:43:18.887Z,5.93
2018-08-31T01:45:47.284Z,5.70
2018-08-31T01:48:15.678Z,5.80
2018-08-31T01:50:49.588Z,5.90
2018-08-31T01:53:17.911Z,5.77
2018-08-31T01:55:46.423Z,6.23
2018-08-31T01:58:14.756Z,5.80
2018-08-31T02:00:43.036Z,6.30
2018-08-31T02:03:11.458Z,5.33
2018-08-31T02:05:39.914Z,6.47
2018-08-31T02:08:08.299Z,6.13
2018-08-31T02:10:36.595Z,6.17
2018-08-31T02:13:05.006Z,6.10
2018-08-31T02:15:33.456Z,6.03
2018-08-31T02:18:01.919Z,6.53
2018-08-31T02:20:30.341Z,5.70
2018-08-31T02:22:58.868Z,5.70
2018-08-31T02:25:27.315Z,5.50
2018-08-31T02:27:55.731Z,6.03
2018-08-31T02:30:24.105Z,5.63
2018-08-31T02:32:52.577Z,5.97
2018-08-31T02:35:20.960Z,6.13
2018-08-31T02:37:49.312Z,5.67
2018-08-31T02:40:17.668Z,5.50
2018-08-31T02:42:45.966Z,6.00
2018-08-31T02:45:14.423Z,5.77
2018-08-31T02:47:42.834Z,5.70
2018-08-31T02:50:11.144Z,5.93
2018-08-31T02:52:39.595Z,6.30
2018-08-31T02:55:07.951Z,6.03
2018-08-31T02:57:36.310Z,5.87
2018-08-31T03:00:04.900Z,5.57
2018-08-31T03:02:33.309Z,5.60
2018-08-31T03:05:01.700Z,5.70
2018-08-31T03:07:30.100Z,5.17
2018-08-31T03:09:58.830Z,5.90
2018-08-31T03:12:27.305Z,5.90
2018-08-31T03:14:55.755Z,5.73
2018-08-31T03:17:24.038Z,6.10
2018-08-31T03:19:52.539Z,5.93
2018-08-31T03:22:20.836Z,6.00
2018-08-31T03:24:49.152Z,5.50
2018-08-31T03:27:17.592Z,5.80
2018-08-31T03:29:45.936Z,5.67
2018-08-31T03:32:14.318Z,5.70
2018-08-31T03:34:42.746Z,5.40
2018-08-31T03:37:11.139Z,5.87
2018-08-31T03:39:39.530Z,5.63
2018-08-31T03:42:07.892Z,5.93
2018-08-31T03:44:36.316Z,5.50
2018-08-31T03:47:04.776Z,5.77
2018-08-31T03:49:33.232Z,6.03
2018-08-31T03:52:01.585Z,6.07
2018-08-31T03:54:29.999Z,6.07
2018-08-31T03:56:58.548Z,5.60
2018-08-31T03:59:26.951Z,6.00
2018-08-31T04:01:55.353Z,5.60
2018-08-31T04:04:23.659Z,6.00
2018-08-31T04:06:51.949Z,6.17
2018-08-31T04:09:20.344Z,6.37
2018-08-31T04:11:48.731Z,6.30
2018-08-31T04:14:17.051Z,7.10
2018-08-31T04:16:45.400Z,6.23
2018-08-31T04:19:16.236Z,6.60
2018-08-31T04:21:45.332Z,5.97
2018-08-31T04:24:15.100Z,6.37
2018-08-31T04:26:43.870Z,6.27
2018-08-31T04:29:12.528Z,6.47
2018-08-31T04:31:41.049Z,6.60
2018-08-31T04:34:10.713Z,6.23
2018-08-31T04:36:39.635Z,6.47
2018-08-31T04:39:10.188Z,7.13
2018-08-31T04:41:38.571Z,6.73
2018-08-31T04:44:07.075Z,6.87
2018-08-31T04:46:35.628Z,6.70
2018-08-31T04:49:03.863Z,6.30
2018-08-31T04:51:32.174Z,6.77
2018-08-31T04:54:00.570Z,7.33
2018-08-31T04:56:28.927Z,8.23
2018-08-31T04:58:57.293Z,7.93
2018-08-31T05:01:26.209Z,8.40
2018-08-31T05:03:54.751Z,7.33
2018-08-31T05:06:23.102Z,7.40
2018-08-31T05:08:51.433Z,7.30
2018-08-31T05:11:20.758Z,7.13
2018-08-31T05:13:49.183Z,6.63
2018-08-31T05:16:17.551Z,7.10
2018-08-31T05:18:45.986Z,6.90
2018-08-31T05:21:14.427Z,6.67
2018-08-31T05:23:43.406Z,6.80
2018-08-31T05:26:12.052Z,7.67
2018-08-31T05:28:40.484Z,7.30
2018-08-31T05:31:08.932Z,7.40
2018-08-31T05:33:37.412Z,7.20
2018-08-31T05:36:05.802Z,7.20
2018-08-31T05:38:37.934Z,6.80
2018-08-31T05:41:06.321Z,7.03
2018-08-31T05:43:34.673Z,7.43
2018-08-31T05:46:02.991Z,7.67
2018-08-31T05:48:31.355Z,6.83
2018-08-31T05:50:59.787Z,6.87
2018-08-31T05:53:28.212Z,7.40
2018-08-31T05:55:56.787Z,7.20
2018-08-31T05:58:25.075Z,7.07
2018-08-31T06:00:53.657Z,7.00
2018-08-31T06:03:22.031Z,7.50
2018-08-31T06:05:50.458Z,7.70
2018-08-31T06:08:18.849Z,6.90
2018-08-31T06:10:47.318Z,7.43
2018-08-31T06:13:15.874Z,8.00
2018-08-31T06:15:44.373Z,7.37
2018-08-31T06:18:12.751Z,7.57
2018-08-31T06:20:41.215Z,7.63
2018-08-31T06:23:09.526Z,8.60
2018-08-31T06:25:37.971Z,8.53
2018-08-31T06:28:06.315Z,8.57
2018-08-31T06:30:34.768Z,7.43
2018-08-31T06:33:03.511Z,7.90
2018-08-31T06:35:31.943Z,8.37
2018-08-31T06:38:00.364Z,8.20
2018-08-31T06:40:28.771Z,7.97
2018-08-31T06:42:57.219Z,8.37
2018-08-31T06:45:25.697Z,8.63
2018-08-31T06:47:54.060Z,9.57
2018-08-31T06:50:22.435Z,9.50
2018-08-31T06:52:50.918Z,9.77
2018-08-31T06:55:19.351Z,10.37
2018-08-31T06:57:47.764Z,9.87
2018-08-31T07:00:16.062Z,11.10
2018-08-31T07:02:44.412Z,10.07
2018-08-31T07:05:13.774Z,10.07
2018-08-31T07:07:42.263Z,8.90
2018-08-31T07:10:11.037Z,8.77
2018-08-31T07:12:39.480Z,8.13
2018-08-31T07:15:08.187Z,8.53
2018-08-31T07:17:36.720Z,8.00
2018-08-31T07:20:05.818Z,9.33
2018-08-31T07:22:34.276Z,8.87
2018-08-31T07:25:02.844Z,8.03
2018-08-31T07:27:31.276Z,9.17
2018-08-31T07:29:59.697Z,8.87
2018-08-31T07:32:28.193Z,7.97
2018-08-31T07:34:56.765Z,8.17
2018-08-31T07:37:25.163Z,8.50
2018-08-31T07:39:53.487Z,8.60
2018-08-31T07:42:21.902Z,9.07
2018-08-31T07:44:50.360Z,7.93
2018-08-31T07:47:18.810Z,8.60
2018-08-31T07:49:47.308Z,9.20
2018-08-31T07:52:15.763Z,7.83
2018-08-31T07:54:44.148Z,7.50
2018-08-31T07:57:12.592Z,7.40
2018-08-31T07:59:41.019Z,7.43
2018-08-31T08:02:09.452Z,7.07
2018-08-31T08:04:37.747Z,7.30
2018-08-31T08:07:06.246Z,7.07
2018-08-31T08:09:34.612Z,7.33
2018-08-31T08:12:03.042Z,8.00
2018-08-31T08:14:53.878Z,7.33
2018-08-31T08:17:22.187Z,7.33
2018-08-31T08:19:50.633Z,7.60
2018-08-31T08:22:19.214Z,7.83
2018-08-31T08:24:47.632Z,7.10
2018-08-31T08:27:16.057Z,7.40
2018-08-31T08:29:44.511Z,6.90
2018-08-31T08:32:12.766Z,6.80
2018-08-31T08:34:41.259Z,6.60
2018-08-31T08:37:09.704Z,6.73
2018-08-31T08:39:38.182Z,7.17
2018-08-31T08:42:06.798Z,6.97
2018-08-31T08:44:35.433Z,6.47
2018-08-31T08:47:03.875Z,6.00
2018-08-31T08:49:32.266Z,6.40
2018-08-31T08:52:00.734Z,6.63
2018-08-31T08:54:29.095Z,6.80
2018-08-31T08:56:57.482Z,5.90
2018-08-31T08:59:25.794Z,6.40
2018-08-31T09:01:54.482Z,6.07
2018-08-31T09:04:23.148Z,6.10
2018-08-31T09:06:51.609Z,5.93
2018-08-31T09:09:20.075Z,5.90
2018-08-31T09:11:48.472Z,6.63
2018-08-31T09:17:47.335Z,6.63
2018-08-31T09:20:15.743Z,6.70
2018-08-31T09:22:44.154Z,6.30
2018-08-31T09:25:12.544Z,6.20
2018-08-31T09:27:40.901Z,6.60
2018-08-31T09:30:15.158Z,6.63
2018-08-31T09:32:43.608Z,6.60
2018-08-31T09:35:12.145Z,6.73
2018-08-31T09:37:40.553Z,7.33
2018-08-31T09:40:09.038Z,6.83
2018-08-31T09:42:37.435Z,6.87
2018-08-31T09:45:06.144Z,7.23
2018-08-31T09:47:34.727Z,7.20
2018-08-31T09:50:03.188Z,7.10
2018-08-31T09:52:31.535Z,6.97
2018-08-31T09:55:00.007Z,8.13
2018-08-31T09:57:28.549Z,7.27
2018-08-31T09:59:56.921Z,6.93
2018-08-31T10:02:30.783Z,7.87
2018-08-31T10:04:59.170Z,7.20
2018-08-31T10:07:27.484Z,7.10
2018-08-31T10:09:55.863Z,7.30
2018-08-31T10:12:24.385Z,6.90
2018-08-31T10:15:19.458Z,7.07
2018-08-31T10:17:47.832Z,7.40
2018-08-31T10:20:16.178Z,6.80
2018-08-31T10:22:44.574Z,7.03
2018-08-31T10:25:12.919Z,7.23
2018-08-31T10:27:41.308Z,7.13
2018-08-31T10:30:09.972Z,6.00
2018-08-31T10:32:38.667Z,6.83
2018-08-31T10:35:07.499Z,7.43
2018-08-31T10:37:35.912Z,6.70
2018-08-31T10:40:04.596Z,7.47
2018-08-31T10:42:32.948Z,7.60
2018-08-31T10:45:01.319Z,6.63
2018-08-31T10:47:29.823Z,6.53
2018-08-31T10:49:58.248Z,6.80
2018-08-31T10:52:26.657Z,6.87
2018-08-31T10:54:55.068Z,7.77
2018-08-31T10:57:23.696Z,6.60
2018-08-31T10:59:52.264Z,6.70
2018-08-31T11:02:20.673Z,6.00
2018-08-31T11:04:49.188Z,6.65
2018-08-31T11:07:17.688Z,6.78
2018-08-31T11:09:45.930Z,7.15
2018-08-31T11:12:14.324Z,6.90
2018-08-31T11:15:29.514Z,7.20
2018-08-31T11:17:57.831Z,7.00
2018-08-31T11:20:26.128Z,7.00
2018-08-31T11:22:54.568Z,7.10
2018-08-31T11:25:22.951Z,6.10
2018-08-31T11:27:51.479Z,5.53
2018-08-31T11:30:19.882Z,6.45
2018-08-31T11:32:48.313Z,6.83
2018-08-31T11:35:16.680Z,6.05
2018-08-31T11:37:45.083Z,15.60
2018-08-31T11:40:13.439Z,6.80
2018-08-31T11:42:41.863Z,6.72
2018-08-31T11:45:10.243Z,5.92
2018-08-31T11:47:38.543Z,6.70
2018-08-31T11:50:07.376Z,6.87
2018-08-31T11:52:35.822Z,6.70
2018-08-31T11:55:04.323Z,7.00
2018-08-31T11:57:32.724Z,6.87
2018-08-31T12:00:01.214Z,7.00
2018-08-31T12:02:29.675Z,7.17
2018-08-31T12:04:58.032Z,7.00
2018-08-31T12:07:26.423Z,7.10
2018-08-31T12:09:54.743Z,6.87
2018-08-31T12:12:23.134Z,7.15
2018-08-31T12:15:33.850Z,6.10
2018-08-31T12:18:02.595Z,7.07
2018-08-31T12:20:31.023Z,7.53
2018-08-31T12:22:59.660Z,7.20
2018-08-31T12:25:28.480Z,6.93
2018-08-31T12:27:56.922Z,9.27
2018-08-31T12:30:25.304Z,7.73
2018-08-31T12:32:54.249Z,8.93
2018-08-31T12:35:22.708Z,7.67
2018-08-31T12:37:51.212Z,5.93
2018-08-31T12:40:19.728Z,5.00
2018-08-31T12:42:48.215Z,6.10
2018-08-31T12:45:16.512Z,5.67
2018-08-31T12:47:45.483Z,5.50
2018-08-31T12:50:13.731Z,5.83
2018-08-31T12:52:42.087Z,5.77
2018-08-31T12:55:11.255Z,4.50
2018-08-31T12:57:39.699Z,4.10
2018-08-31T13:00:08.339Z,4.10
2018-08-31T13:02:37.210Z,3.70
2018-08-31T13:05:06.827Z,4.23
2018-08-31T13:07:35.171Z,3.70
2018-08-31T13:10:03.863Z,3.20
2018-08-31T13:12:32.303Z,3.30
2018-08-31T13:15:39.546Z,3.13
2018-08-31T13:18:08.139Z,3.30
2018-08-31T13:20:37.068Z,3.60
2018-08-31T13:23:06.215Z,3.30
2018-08-31T13:25:34.709Z,3.17
2018-08-31T13:28:03.168Z,3.40
2018-08-31T13:30:31.911Z,3.20
2018-08-31T13:33:00.579Z,3.37
2018-08-31T13:35:29.172Z,3.77
2018-08-31T13:37:57.639Z,3.47
2018-08-31T13:40:25.967Z,3.47
2018-08-31T13:42:54.390Z,3.70
2018-08-31T13:45:22.756Z,3.33
2018-08-31T13:47:51.091Z,3.70
2018-08-31T13:50:19.359Z,3.70
2018-08-31T13:52:47.766Z,4.00
2018-08-31T13:55:16.107Z,3.77
2018-08-31T13:57:44.595Z,3.73
2018-08-31T14:00:13.028Z,3.50
2018-08-31T14:02:41.397Z,3.43
2018-08-31T14:05:10.011Z,3.90
2018-08-31T14:07:38.403Z,3.77
2018-08-31T14:10:06.751Z,3.80
2018-08-31T14:12:35.141Z,3.40
2018-08-31T14:18:21.043Z,3.40
2018-08-31T14:20:49.638Z,3.27
2018-08-31T14:23:18.115Z,3.50
2018-08-31T14:25:46.959Z,3.40
2018-08-31T14:28:15.362Z,3.40
2018-08-31T14:30:43.783Z,3.63
2018-08-31T14:33:12.134Z,3.27
2018-08-31T14:35:40.923Z,3.20
2018-08-31T14:38:10.572Z,3.47
2018-08-31T14:40:39.140Z,3.40
2018-08-31T14:43:07.637Z,3.30
2018-08-31T14:45:35.946Z,3.20
2018-08-31T14:48:04.519Z,3.50
2018-08-31T14:50:32.947Z,3.67
2018-08-31T14:53:01.334Z,3.60
2018-08-31T14:55:30.206Z,3.83
2018-08-31T14:57:58.647Z,4.17
2018-08-31T15:00:27.073Z,4.70
2018-08-31T15:02:55.520Z,4.77
2018-08-31T15:05:23.975Z,5.40
2018-08-31T15:07:52.430Z,5.97
2018-08-31T15:10:20.886Z,6.87
2018-08-31T15:12:49.768Z,6.10
2018-08-31T15:18:38.596Z,6.67
2018-08-31T15:21:07.219Z,7.77
2018-08-31T15:23:35.780Z,7.20
2018-08-31T15:26:12.372Z,7.13
2018-08-31T15:28:40.746Z,7.97
2018-08-31T15:31:09.222Z,9.40
2018-08-31T15:33:43.232Z,8.50
2018-08-31T15:36:11.719Z,7.80
2018-08-31T15:38:40.044Z,9.33
2018-08-31T15:41:08.594Z,9.07
2018-08-31T15:43:36.987Z,10.93
2018-08-31T15:46:05.467Z,11.63
2018-08-31T15:48:33.887Z,10.97
2018-08-31T15:51:02.346Z,10.70
2018-08-31T15:53:30.971Z,11.13
2018-08-31T15:56:11.784Z,10.93
2018-08-31T15:58:45.304Z,10.77
2018-08-31T16:01:13.726Z,11.03
2018-08-31T16:03:42.159Z,10.53
2018-08-31T16:06:10.802Z,10.30
2018-08-31T16:08:39.391Z,10.90
2018-08-31T16:11:08.657Z,10.40
2018-08-31T16:13:37.260Z,10.40
2018-08-31T16:16:32.583Z,10.50
2018-08-31T16:19:01.115Z,10.10
2018-08-31T16:21:30.094Z,11.53
2018-08-31T16:23:58.418Z,9.90
2018-08-31T16:26:27.591Z,10.77
2018-08-31T16:28:56.030Z,11.00
2018-08-31T16:31:24.475Z,10.43
2018-08-31T16:33:53.208Z,10.77
2018-08-31T16:36:21.547Z,11.03
2018-08-31T16:38:50.026Z,10.77
2018-08-31T16:41:18.370Z,10.60
2018-08-31T16:43:46.827Z,10.63
2018-08-31T16:46:15.206Z,11.23
2018-08-31T16:48:43.463Z,10.67
2018-08-31T16:51:11.974Z,10.67
2018-08-31T16:53:40.366Z,11.13
2018-08-31T16:56:08.790Z,11.33
2018-08-31T16:58:37.249Z,10.97
2018-08-31T17:01:05.878Z,10.43
2018-08-31T17:03:34.294Z,10.83
2018-08-31T17:06:02.686Z,10.90
2018-08-31T17:08:31.306Z,10.60
2018-08-31T17:11:02.690Z,10.33
2018-08-31T17:13:31.272Z,10.63
2018-08-31T17:19:20.379Z,10.10
2018-08-31T17:21:49.178Z,9.47
2018-08-31T17:24:17.872Z,10.33
2018-08-31T17:26:51.838Z,9.63
2018-08-31T17:29:25.958Z,9.90
2018-08-31T17:31:59.956Z,9.97
2018-08-31T17:34:33.923Z,9.80
2018-08-31T17:37:07.962Z,9.33
2018-08-31T17:39:36.506Z,10.30
2018-08-31T17:42:05.183Z,10.60
2018-08-31T17:44:33.564Z,10.80
2018-08-31T17:47:02.064Z,11.13
2018-08-31T17:49:30.842Z,11.63
2018-08-31T17:51:59.423Z,17.80
2018-08-31T17:54:28.261Z,11.90
2018-08-31T17:56:57.094Z,10.57
2018-08-31T17:59:26.080Z,10.50
2018-08-31T18:01:55.234Z,10.83
2018-08-31T18:04:24.023Z,10.33
2018-08-31T18:06:53.148Z,10.43
2018-08-31T18:09:22.311Z,10.67
2018-08-31T18:11:51.379Z,9.83
2018-08-31T18:14:45.977Z,9.90
2018-08-31T18:17:15.555Z,10.23
2018-08-31T18:19:45.105Z,9.90
2018-08-31T18:22:14.179Z,9.57
2018-08-31T18:24:43.206Z,9.83
2018-08-31T18:27:12.402Z,9.80
2018-08-31T18:29:41.602Z,10.00
2018-08-31T18:32:10.820Z,9.00
2018-08-31T18:34:39.925Z,10.23
2018-08-31T18:37:09.371Z,9.53
2018-08-31T18:39:38.703Z,10.60
2018-08-31T18:42:07.844Z,9.73
2018-08-31T18:44:37.235Z,9.67
2018-08-31T18:47:06.583Z,9.07
2018-08-31T18:49:36.780Z,10.23
2018-08-31T18:52:07.663Z,9.80
2018-08-31T18:54:36.804Z,9.20
2018-08-31T18:57:06.955Z,9.73
2018-08-31T18:59:36.215Z,9.17
2018-08-31T19:02:05.459Z,10.30
2018-08-31T19:04:34.711Z,9.70
2018-08-31T19:07:04.006Z,9.47
2018-08-31T19:09:33.305Z,9.00
2018-08-31T19:12:02.543Z,9.13
2018-08-31T19:17:52.791Z,9.30
2018-08-31T19:20:22.331Z,8.90
2018-08-31T19:22:51.488Z,9.37
2018-08-31T19:25:21.928Z,8.90
2018-08-31T19:27:51.448Z,8.47
2018-08-31T19:30:22.267Z,8.50
2018-08-31T19:32:51.480Z,9.37
2018-08-31T19:35:21.011Z,9.00
2018-08-31T19:37:50.292Z,9.00
2018-08-31T19:40:19.423Z,8.77
2018-08-31T19:42:48.791Z,8.63
2018-08-31T19:45:18.260Z,9.23
2018-08-31T19:47:47.511Z,8.90
2018-08-31T19:50:16.831Z,9.73
2018-08-31T19:52:46.119Z,9.73
2018-08-31T19:55:23.411Z,9.73
2018-08-31T19:58:06.339Z,8.97
2018-08-31T20:00:35.760Z,9.53
2018-08-31T20:03:04.936Z,9.70
2018-08-31T20:05:34.748Z,8.00
2018-08-31T20:08:04.736Z,8.83
2018-08-31T20:10:34.010Z,9.07
2018-08-31T20:13:03.217Z,8.90
2018-08-31T20:18:55.607Z,8.23
2018-08-31T20:21:24.971Z,8.87
2018-08-31T20:23:54.186Z,9.50
2018-08-31T20:29:51.265Z,8.33
2018-08-31T20:32:20.512Z,8.67
2018-08-31T20:34:49.692Z,9.07
2018-08-31T20:37:18.915Z,8.20
2018-08-31T20:39:48.212Z,8.20
2018-08-31T20:42:17.299Z,8.87
2018-08-31T20:44:46.580Z,8.30
2018-08-31T20:47:15.908Z,8.43
2018-08-31T20:49:44.967Z,8.67
2018-08-31T20:52:15.148Z,8.33
2018-08-31T20:54:44.279Z,8.40
2018-08-31T20:57:13.585Z,7.93
2018-08-31T20:59:43.504Z,8.33
2018-08-31T21:02:12.787Z,8.50
2018-08-31T21:04:41.928Z,8.50
2018-08-31T21:07:11.122Z,8.93
2018-08-31T21:09:40.288Z,8.50
2018-08-31T21:12:09.491Z,8.60
2018-08-31T21:15:19.344Z,8.63
2018-08-31T21:17:48.413Z,9.23
2018-08-31T21:20:17.492Z,8.43
2018-08-31T21:22:46.496Z,8.60
2018-08-31T21:25:16.131Z,8.10
2018-08-31T21:27:45.145Z,8.87
2018-08-31T21:30:14.218Z,8.40
2018-08-31T21:32:43.427Z,8.63
2018-08-31T21:35:12.640Z,8.43
2018-08-31T21:37:41.239Z,8.93
2018-08-31T21:40:09.756Z,8.50
2018-08-31T21:42:38.660Z,9.13
2018-08-31T21:45:07.535Z,8.40
2018-08-31T21:47:36.408Z,9.20
2018-08-31T21:50:05.199Z,9.27
2018-08-31T21:52:34.082Z,9.23
2018-08-31T21:55:02.720Z,9.80
2018-08-31T21:57:31.219Z,9.13
2018-08-31T21:59:59.944Z,9.20
2018-08-31T22:02:28.570Z,9.40
2018-08-31T22:04:56.878Z,9.13
2018-08-31T22:07:25.360Z,9.20
2018-08-31T22:09:53.812Z,9.20
2018-08-31T22:12:22.479Z,8.80
2018-08-31T22:14:50.878Z,8.90
2018-08-31T22:17:19.591Z,8.80
2018-08-31T22:19:48.326Z,8.97
2018-08-31T22:22:16.716Z,9.10
2018-08-31T22:24:45.180Z,8.73
2018-08-31T22:27:13.986Z,9.40
2018-08-31T22:29:42.470Z,8.90
2018-08-31T22:32:11.213Z,8.60
2018-08-31T22:34:39.839Z,9.23
2018-08-31T22:37:08.455Z,8.43
2018-08-31T22:39:37.124Z,8.87
2018-08-31T22:42:05.760Z,8.93
2018-08-31T22:44:35.763Z,9.07
2018-08-31T22:47:05.036Z,8.43
2018-08-31T22:49:33.723Z,9.63
2018-08-31T22:52:02.212Z,8.97
2018-08-31T22:54:30.507Z,8.67
2018-08-31T22:56:59.110Z,9.63
2018-08-31T22:59:27.649Z,8.37
2018-08-31T23:01:56.082Z,9.13
2018-08-31T23:04:24.723Z,9.53
2018-08-31T23:06:53.516Z,9.00
2018-08-31T23:09:21.983Z,8.47
2018-08-31T23:11:50.592Z,9.47
2018-08-31T23:14:18.955Z,8.80
2018-08-31T23:16:47.572Z,8.80
2018-08-31T23:19:16.323Z,8.97
2018-08-31T23:21:44.563Z,9.03
2018-08-31T23:24:12.920Z,9.40
2018-08-31T23:26:41.369Z,9.17
2018-08-31T23:29:10.119Z,9.67
2018-08-31T23:31:38.750Z,9.67
2018-08-31T23:34:07.576Z,8.97
2018-08-31T23:36:36.351Z,9.50
2018-08-31T23:39:06.723Z,9.10
2018-08-31T23:41:35.618Z,9.80
2018-08-31T23:44:04.241Z,9.40
2018-08-31T23:46:32.462Z,9.03
2018-08-31T23:49:01.205Z,8.27
2018-08-31T23:51:30.630Z,9.23
2018-08-31T23:53:59.412Z,9.10
2018-08-31T23:56:29.114Z,9.13
2018-08-31T23:58:57.584Z,8.93
